Molly Patricia — WDH9743 — position and weather

sailwx.info

Track history (hours):
 
Tides and Currents Weather Stations Pressure Air Temp Water Temp Dewpoint Dewpoint Depression Visibility Wind Speed Wind Dir Waves Ship Positions

Molly Patricia

Owner: MOLLY PATRICIA, Houston, TX. More information available from US FCC via Universal Licensing System and Coast Guard Vessel Documentation Center.

Last reported at 2018-Jun-05 11:22 UTC. Time now 2018-Jun-20 05:48 UTC.
Position N 32°55' W 091°04'.
Warning: this ship's position is 14 days out of date.

Length 29 m; draft 3 m.

Type: Sailing vessel. MMSI: 367671160.

Date/timePositionNaut miles runAvg speedWind from/ knotsBaromVisibWave heightAir tempDewpointWater temp
2018-Jun-05 11:22N 32°55' W 091°04'5 4.4
2018-Jun-05 10:16N 32°51' W 091°08'1 4.4
2018-Jun-05 09:59N 32°50' W 091°08'2 4.3
2018-Jun-05 09:29N 32°48' W 091°09'2 4.5
2018-Jun-05 09:00N 32°46' W 091°09'3 4.2
2018-Jun-05 08:20N 32°44' W 091°06'1 4.6
2018-Jun-05 08:00N 32°44' W 091°05'0 0.0
2018-Jun-05 07:30N 32°44' W 091°05'0 0.0
2018-Jun-05 07:00N 32°44' W 091°05'1 2.5
2018-Jun-05 06:30N 32°44' W 091°03'2 3.9
2018-Jun-05 05:54N 32°41' W 091°04'2 4.8
2018-Jun-05 05:29N 32°40' W 091°06'2 4.0
2018-Jun-05 05:00N 32°39' W 091°08'2 4.5
2018-Jun-05 04:30N 32°37' W 091°09'2 4.2
2018-Jun-05 04:00N 32°35' W 091°08'2 4.2
2018-Jun-05 03:30N 32°34' W 091°06'2 4.2
2018-Jun-05 03:00N 32°32' W 091°06'3 5.6
2018-Jun-05 02:30N 32°29' W 091°07'2 3.9
2018-Jun-05 02:00N 32°27' W 091°06'2 4.5
2018-Jun-05 01:30N 32°26' W 091°03'2 4.7
2018-Jun-05 01:00N 32°26' W 091°01'2 4.3
2018-Jun-05 00:30N 32°24' W 090°60'2 4.1
2018-Jun-05 00:00N 32°22' W 091°00'2 4.7
2018-Jun-04 23:30N 32°21' W 090°57'2 4.7
2018-Jun-04 23:00N 32°21' W 090°55'2 4.0
2018-Jun-04 22:30N 32°19' W 090°55'1 1.6
2018-Jun-04 21:59N 32°18' W 090°55'2 4.5
2018-Jun-04 21:30N 32°17' W 090°57'2 4.5
2018-Jun-04 21:00N 32°15' W 090°59'2 4.8
2018-Jun-04 20:30N 32°12' W 090°59'2 4.5
2018-Jun-04 20:00N 32°10' W 091°00'2 4.3
2018-Jun-04 19:30N 32°08' W 091°00'2 3.7
2018-Jun-04 18:59N 32°07' W 091°02'2 3.2
2018-Jun-04 18:30N 32°08' W 091°04'1 3.0
2018-Jun-04 18:00N 32°08' W 091°06'2 3.1
2018-Jun-04 17:30N 32°06' W 091°06'4 4.0
2018-Jun-04 16:33N 32°03' W 091°03'0 3.8
2018-Jun-04 16:30N 32°03' W 091°04'2 4.6
2018-Jun-04 16:00N 32°01' W 091°05'5 4.3
2018-Jun-04 14:48N 31°59' W 091°10'1 4.3
2018-Jun-04 14:28N 31°58' W 091°11'2 4.0
2018-Jun-04 13:57N 31°56' W 091°12'2 3.7
2018-Jun-04 13:30N 31°54' W 091°12'2 4.5
2018-Jun-04 12:59N 31°52' W 091°14'2 4.1
2018-Jun-04 12:29N 31°51' W 091°17'2 4.6
2018-Jun-04 12:00N 31°52' W 091°19'2 4.0
2018-Jun-04 11:30N 31°50' W 091°21'21 4.1
2018-Jun-04 06:20N 31°31' W 091°31'  
2018-May-29 11:03N 29°58' W 090°14'0 0.0
2018-May-29 10:59N 29°58' W 090°14'0 0.0
2018-May-29 10:30N 29°58' W 090°14'0 0.0
2018-May-29 10:01N 29°58' W 090°14'0 0.0
2018-May-29 09:30N 29°58' W 090°14'0 0.0
2018-May-29 09:00N 29°58' W 090°14'0 0.0
2018-May-29 08:27N 29°58' W 090°14'  
Track history (hours):
 
Tides and Currents Weather Stations Pressure Air Temp Water Temp Dewpoint Dewpoint Depression Visibility Wind Speed Wind Dir Waves Ship Positions

Molly Patricia

Owner: MOLLY PATRICIA, Houston, TX. More information available from US FCC via Universal Licensing System and Coast Guard Vessel Documentation Center.

Last reported at 2018-Jun-05 11:22 UTC. Time now 2018-Jun-20 05:48 UTC.
Position N 32°55' W 091°04'.
Warning: this ship's position is 14 days out of date.

Length 29 m; draft 3 m.

Type: Sailing vessel. MMSI: 367671160.

Date/timePositionNaut miles runAvg speedWind from/ knotsBaromVisibWave heightAir tempDewpointWater temp
2018-Jun-05 11:22N 32°55' W 091°04'5 4.4
2018-Jun-05 10:16N 32°51' W 091°08'1 4.4
2018-Jun-05 09:59N 32°50' W 091°08'2 4.3
2018-Jun-05 09:29N 32°48' W 091°09'2 4.5
2018-Jun-05 09:00N 32°46' W 091°09'3 4.2
2018-Jun-05 08:20N 32°44' W 091°06'1 4.6
2018-Jun-05 08:00N 32°44' W 091°05'0 0.0
2018-Jun-05 07:30N 32°44' W 091°05'0 0.0
2018-Jun-05 07:00N 32°44' W 091°05'1 2.5
2018-Jun-05 06:30N 32°44' W 091°03'2 3.9
2018-Jun-05 05:54N 32°41' W 091°04'2 4.8
2018-Jun-05 05:29N 32°40' W 091°06'2 4.0
2018-Jun-05 05:00N 32°39' W 091°08'2 4.5
2018-Jun-05 04:30N 32°37' W 091°09'2 4.2
2018-Jun-05 04:00N 32°35' W 091°08'2 4.2
2018-Jun-05 03:30N 32°34' W 091°06'2 4.2
2018-Jun-05 03:00N 32°32' W 091°06'3 5.6
2018-Jun-05 02:30N 32°29' W 091°07'2 3.9
2018-Jun-05 02:00N 32°27' W 091°06'2 4.5
2018-Jun-05 01:30N 32°26' W 091°03'2 4.7
2018-Jun-05 01:00N 32°26' W 091°01'2 4.3
2018-Jun-05 00:30N 32°24' W 090°60'2 4.1
2018-Jun-05 00:00N 32°22' W 091°00'2 4.7
2018-Jun-04 23:30N 32°21' W 090°57'2 4.7
2018-Jun-04 23:00N 32°21' W 090°55'2 4.0
2018-Jun-04 22:30N 32°19' W 090°55'1 1.6
2018-Jun-04 21:59N 32°18' W 090°55'2 4.5
2018-Jun-04 21:30N 32°17' W 090°57'2 4.5
2018-Jun-04 21:00N 32°15' W 090°59'2 4.8
2018-Jun-04 20:30N 32°12' W 090°59'2 4.5
2018-Jun-04 20:00N 32°10' W 091°00'2 4.3
2018-Jun-04 19:30N 32°08' W 091°00'2 3.7
2018-Jun-04 18:59N 32°07' W 091°02'2 3.2
2018-Jun-04 18:30N 32°08' W 091°04'1 3.0
2018-Jun-04 18:00N 32°08' W 091°06'2 3.1
2018-Jun-04 17:30N 32°06' W 091°06'4 4.0
2018-Jun-04 16:33N 32°03' W 091°03'0 3.8
2018-Jun-04 16:30N 32°03' W 091°04'2 4.6
2018-Jun-04 16:00N 32°01' W 091°05'5 4.3
2018-Jun-04 14:48N 31°59' W 091°10'1 4.3
2018-Jun-04 14:28N 31°58' W 091°11'2 4.0
2018-Jun-04 13:57N 31°56' W 091°12'2 3.7
2018-Jun-04 13:30N 31°54' W 091°12'2 4.5
2018-Jun-04 12:59N 31°52' W 091°14'2 4.1
2018-Jun-04 12:29N 31°51' W 091°17'2 4.6
2018-Jun-04 12:00N 31°52' W 091°19'2 4.0
2018-Jun-04 11:30N 31°50' W 091°21'21 4.1
2018-Jun-04 06:20N 31°31' W 091°31'  
2018-May-29 11:03N 29°58' W 090°14'0 0.0
2018-May-29 10:59N 29°58' W 090°14'0 0.0
2018-May-29 10:30N 29°58' W 090°14'0 0.0
2018-May-29 10:01N 29°58' W 090°14'0 0.0
2018-May-29 09:30N 29°58' W 090°14'0 0.0
2018-May-29 09:00N 29°58' W 090°14'0 0.0
2018-May-29 08:27N 29°58' W 090°14'  

Dump ship's entire track history